createdAt,value
2022-10-31T00:01:21.716Z,6.18
2022-10-31T00:03:48.789Z,5.95
2022-10-31T00:06:19.039Z,5.28
2022-10-31T00:08:57.523Z,5.82
2022-10-31T00:11:25.018Z,5.90
2022-10-31T00:13:52.452Z,6.65
2022-10-31T00:16:21.656Z,6.00
2022-10-31T00:18:53.142Z,5.20
2022-10-31T00:21:20.683Z,5.22
2022-10-31T00:23:47.658Z,5.27
2022-10-31T00:26:14.906Z,5.28
2022-10-31T00:28:42.116Z,6.10
2022-10-31T00:31:10.827Z,3.85
2022-10-31T00:33:39.824Z,5.57
2022-10-31T00:36:08.592Z,5.17
2022-10-31T00:38:35.824Z,5.57
2022-10-31T00:41:03.362Z,5.72
2022-10-31T00:43:30.591Z,5.78
2022-10-31T00:45:57.904Z,5.93
2022-10-31T00:48:25.582Z,5.73
2022-10-31T00:50:53.694Z,5.63
2022-10-31T00:53:20.981Z,5.13
2022-10-31T00:55:48.587Z,5.28
2022-10-31T00:58:15.811Z,5.10
2022-10-31T01:00:45.572Z,4.70
2022-10-31T01:03:14.898Z,5.40
2022-10-31T01:05:42.535Z,4.25
2022-10-31T01:08:10.019Z,5.80
2022-10-31T01:10:36.785Z,4.97
2022-10-31T01:13:04.051Z,4.87
2022-10-31T01:15:31.250Z,5.03
2022-10-31T01:17:59.828Z,5.35
2022-10-31T01:20:27.294Z,5.35
2022-10-31T01:22:54.686Z,6.00
2022-10-31T01:25:24.463Z,6.53
2022-10-31T01:27:51.860Z,6.75
2022-10-31T01:30:18.678Z,6.50
2022-10-31T01:32:46.114Z,6.70
2022-10-31T01:35:13.292Z,6.05
2022-10-31T01:37:40.185Z,6.07
2022-10-31T01:40:07.684Z,7.35
2022-10-31T01:42:34.431Z,5.90
2022-10-31T01:45:02.876Z,6.40
2022-10-31T01:47:40.774Z,6.35
2022-10-31T01:50:41.033Z,5.83
2022-10-31T01:53:10.573Z,5.63
2022-10-31T01:55:41.635Z,6.75
2022-10-31T02:00:56.944Z,5.68
2022-10-31T02:03:24.817Z,6.07
2022-10-31T02:05:52.221Z,6.20
2022-10-31T02:08:31.984Z,6.32
2022-10-31T02:11:00.918Z,6.45
2022-10-31T02:13:30.155Z,6.20
2022-10-31T02:15:59.409Z,5.57
2022-10-31T02:18:30.089Z,5.55
2022-10-31T02:21:21.862Z,5.55
2022-10-31T02:23:57.146Z,6.20
2022-10-31T02:26:39.795Z,5.88
2022-10-31T02:29:18.677Z,4.43
2022-10-31T02:32:13.119Z,5.10
2022-10-31T02:34:58.871Z,5.82
2022-10-31T02:37:55.389Z,5.60
2022-10-31T02:40:26.766Z,5.72
2022-10-31T02:43:28.021Z,4.57
2022-10-31T02:45:55.227Z,5.57
2022-10-31T02:48:28.898Z,6.63
2022-10-31T02:51:00.824Z,5.82
2022-10-31T02:53:28.245Z,5.78
2022-10-31T02:56:17.613Z,4.73
2022-10-31T02:58:59.169Z,6.07
2022-10-31T03:01:56.605Z,5.85
2022-10-31T03:04:47.952Z,5.60
2022-10-31T03:07:51.268Z,5.90
2022-10-31T03:10:29.527Z,6.40
2022-10-31T03:13:13.917Z,6.55
2022-10-31T03:15:52.021Z,7.10
2022-10-31T03:18:35.647Z,4.63
2022-10-31T03:21:08.571Z,6.20
2022-10-31T03:23:38.621Z,6.17
2022-10-31T03:26:08.343Z,5.97
2022-10-31T03:28:39.581Z,6.97
2022-10-31T03:31:08.714Z,4.95
2022-10-31T03:33:42.348Z,6.72
2022-10-31T03:36:11.668Z,6.13
2022-10-31T03:38:40.299Z,7.18
2022-10-31T03:41:14.536Z,6.07
2022-10-31T03:43:47.235Z,7.25
2022-10-31T03:46:14.665Z,6.85
2022-10-31T03:48:41.518Z,6.07
2022-10-31T03:51:21.476Z,5.95
2022-10-31T03:54:05.171Z,6.75
2022-10-31T03:56:32.505Z,6.57
2022-10-31T03:58:59.680Z,6.10
2022-10-31T04:01:31.069Z,6.77
2022-10-31T04:03:59.881Z,7.20
2022-10-31T04:06:27.410Z,7.28
2022-10-31T04:09:02.542Z,6.15
2022-10-31T04:11:33.898Z,6.70
2022-10-31T04:14:30.964Z,6.23
2022-10-31T04:16:58.508Z,7.03
2022-10-31T04:19:34.746Z,6.05
2022-10-31T04:22:02.088Z,6.50
2022-10-31T04:24:30.168Z,6.68
2022-10-31T04:26:58.642Z,6.93
2022-10-31T04:29:26.274Z,6.38
2022-10-31T04:31:54.048Z,6.63
2022-10-31T04:34:21.981Z,7.55
2022-10-31T04:36:51.126Z,6.85
2022-10-31T04:39:22.674Z,6.80
2022-10-31T04:42:11.649Z,7.03
2022-10-31T04:44:39.667Z,7.53
2022-10-31T04:47:06.904Z,6.88
2022-10-31T04:49:34.241Z,7.60
2022-10-31T04:52:01.577Z,7.40
2022-10-31T04:54:29.071Z,7.47
2022-10-31T04:57:14.931Z,6.00
2022-10-31T04:59:43.350Z,7.43
2022-10-31T05:02:11.106Z,7.28
2022-10-31T05:04:50.228Z,7.60
2022-10-31T05:07:18.274Z,7.18
2022-10-31T05:09:45.094Z,6.35
2022-10-31T05:12:13.632Z,7.60
2022-10-31T05:15:00.833Z,7.28
2022-10-31T05:17:46.684Z,7.67
2022-10-31T05:20:32.243Z,7.55
2022-10-31T05:23:05.254Z,6.85
2022-10-31T05:25:32.997Z,8.10
2022-10-31T05:28:03.128Z,8.88
2022-10-31T05:30:32.575Z,9.40
2022-10-31T05:33:00.348Z,9.57
2022-10-31T05:35:45.824Z,7.40
2022-10-31T05:38:39.141Z,7.82
2022-10-31T05:41:20.837Z,8.18
2022-10-31T05:43:48.840Z,7.97
2022-10-31T05:46:18.327Z,8.43
2022-10-31T05:49:15.008Z,17.33
2022-10-31T05:52:00.231Z,10.38
2022-10-31T05:54:37.038Z,11.73
2022-10-31T05:57:04.305Z,15.53
2022-10-31T05:59:31.556Z,14.43
2022-10-31T06:01:59.305Z,15.95
2022-10-31T06:04:49.919Z,18.70
2022-10-31T06:07:17.350Z,15.55
2022-10-31T06:09:44.889Z,15.63
2022-10-31T06:12:12.015Z,17.50
2022-10-31T06:14:57.650Z,18.33
2022-10-31T06:17:24.972Z,16.40
2022-10-31T06:20:12.111Z,19.90
2022-10-31T06:22:50.596Z,21.93
2022-10-31T06:25:17.780Z,21.35
2022-10-31T06:27:49.272Z,19.33
2022-10-31T06:30:16.886Z,21.88
2022-10-31T06:32:46.188Z,20.92
2022-10-31T06:35:13.816Z,20.27
2022-10-31T06:37:44.391Z,20.25
2022-10-31T06:40:27.730Z,19.75
2022-10-31T06:43:15.292Z,19.48
2022-10-31T06:45:43.295Z,18.45
2022-10-31T06:48:17.952Z,18.77
2022-10-31T06:51:08.419Z,17.23
2022-10-31T06:53:35.370Z,17.13
2022-10-31T06:56:04.364Z,17.83
2022-10-31T06:58:36.756Z,19.38
2022-10-31T07:01:06.540Z,17.70
2022-10-31T07:03:34.588Z,18.17
2022-10-31T07:06:01.905Z,19.40
2022-10-31T07:08:28.852Z,19.27
2022-10-31T07:10:57.611Z,15.80
2022-10-31T07:13:26.604Z,15.93
2022-10-31T07:16:04.499Z,18.63
2022-10-31T07:18:34.265Z,18.48
2022-10-31T07:21:01.442Z,17.67
2022-10-31T07:23:28.614Z,21.95
2022-10-31T07:26:24.747Z,20.73
2022-10-31T07:28:52.845Z,16.40
2022-10-31T07:31:22.830Z,18.25
2022-10-31T07:33:51.792Z,17.55
2022-10-31T07:36:28.197Z,19.42
2022-10-31T07:38:59.952Z,19.40
2022-10-31T07:41:27.298Z,18.27
2022-10-31T07:43:54.968Z,19.65
2022-10-31T07:46:23.101Z,19.42
2022-10-31T07:49:16.556Z,18.10
2022-10-31T07:52:15.746Z,17.77
2022-10-31T07:55:06.825Z,18.48
2022-10-31T07:57:37.755Z,18.02
2022-10-31T08:00:06.830Z,19.00
2022-10-31T08:02:41.857Z,18.35
2022-10-31T08:05:45.896Z,20.33
2022-10-31T08:08:37.549Z,22.58
2022-10-31T08:11:06.430Z,24.38
2022-10-31T08:13:33.934Z,28.73
2022-10-31T08:16:04.991Z,24.45
2022-10-31T08:18:35.451Z,20.57
2022-10-31T08:21:04.035Z,20.40
2022-10-31T08:23:31.022Z,20.08
2022-10-31T08:25:58.736Z,20.30
2022-10-31T08:28:25.679Z,20.00
2022-10-31T08:30:54.790Z,19.27
2022-10-31T08:33:39.874Z,20.73
2022-10-31T08:36:29.010Z,19.92
2022-10-31T08:39:15.145Z,19.63
2022-10-31T08:41:42.600Z,19.17
2022-10-31T08:44:12.621Z,19.60
2022-10-31T08:46:39.849Z,20.42
2022-10-31T08:49:06.863Z,20.42
2022-10-31T08:51:33.931Z,19.70
2022-10-31T08:54:01.905Z,21.50
2022-10-31T08:56:47.483Z,23.83
2022-10-31T08:59:30.982Z,20.95
2022-10-31T09:02:16.635Z,21.52
2022-10-31T09:04:43.610Z,20.80
2022-10-31T09:07:26.347Z,19.02
2022-10-31T09:09:54.692Z,20.57
2022-10-31T09:12:21.529Z,19.35
2022-10-31T09:15:07.683Z,20.23
2022-10-31T09:17:39.933Z,20.25
2022-10-31T09:20:20.270Z,20.55
2022-10-31T09:22:47.697Z,20.37
2022-10-31T09:25:15.243Z,20.08
2022-10-31T09:27:47.460Z,19.80
2022-10-31T09:30:14.710Z,19.48
2022-10-31T09:32:44.160Z,19.85
2022-10-31T09:37:39.536Z,18.33
2022-10-31T09:40:06.693Z,17.98
2022-10-31T09:42:57.060Z,17.70
2022-10-31T09:45:35.491Z,16.80
2022-10-31T09:48:15.125Z,16.87
2022-10-31T09:51:18.114Z,17.80
2022-10-31T09:53:59.244Z,16.80
2022-10-31T09:56:27.754Z,15.75
2022-10-31T09:59:01.566Z,15.75
2022-10-31T10:01:31.664Z,15.43
2022-10-31T10:04:40.267Z,15.80
2022-10-31T10:07:36.343Z,15.43
2022-10-31T10:10:23.384Z,14.15
2022-10-31T10:13:27.835Z,14.90
2022-10-31T10:16:10.235Z,14.73
2022-10-31T10:18:53.727Z,15.30
2022-10-31T10:21:29.399Z,15.52
2022-10-31T10:23:56.621Z,13.95
2022-10-31T10:26:37.803Z,14.98
2022-10-31T10:29:23.839Z,14.53
2022-10-31T10:31:52.586Z,15.25
2022-10-31T10:34:24.835Z,14.35
2022-10-31T10:36:54.806Z,15.10
2022-10-31T10:39:39.924Z,15.30
2022-10-31T10:42:34.322Z,14.77
2022-10-31T10:45:29.213Z,14.52
2022-10-31T10:48:26.121Z,14.75
2022-10-31T10:50:53.903Z,14.82
2022-10-31T10:54:00.317Z,15.00
2022-10-31T10:56:42.021Z,14.60
2022-10-31T10:59:16.294Z,13.68
2022-10-31T11:01:43.783Z,13.50
2022-10-31T11:04:30.251Z,13.70
2022-10-31T11:07:01.095Z,13.68
2022-10-31T11:09:28.354Z,14.33
2022-10-31T11:11:56.865Z,13.55
2022-10-31T11:14:24.483Z,13.27
2022-10-31T11:17:08.792Z,13.40
2022-10-31T11:19:36.868Z,13.40
2022-10-31T11:22:16.001Z,14.07
2022-10-31T11:24:43.674Z,13.68
2022-10-31T11:27:21.209Z,14.07
2022-10-31T11:29:48.559Z,12.90
2022-10-31T11:32:24.859Z,12.40
2022-10-31T11:34:59.434Z,14.20
2022-10-31T11:37:29.175Z,12.90
2022-10-31T11:40:06.449Z,14.40
2022-10-31T11:42:42.375Z,13.35
2022-10-31T11:45:18.014Z,13.75
2022-10-31T11:47:48.673Z,13.00
2022-10-31T11:50:23.816Z,14.95
2022-10-31T11:52:52.105Z,14.38
2022-10-31T11:55:38.221Z,17.33
2022-10-31T11:58:18.779Z,14.95
2022-10-31T12:00:51.029Z,14.97
2022-10-31T12:03:23.604Z,14.18
2022-10-31T12:05:55.368Z,16.17
2022-10-31T12:08:22.565Z,15.25
2022-10-31T12:10:58.266Z,16.27
2022-10-31T12:13:35.746Z,15.60
2022-10-31T12:16:43.681Z,16.40
2022-10-31T12:20:01.487Z,11.63
2022-10-31T12:22:36.093Z,16.10
2022-10-31T12:25:25.916Z,16.15
2022-10-31T12:28:46.448Z,15.90
2022-10-31T12:31:24.409Z,14.90
2022-10-31T12:34:16.869Z,16.65
2022-10-31T12:37:18.848Z,16.45
2022-10-31T12:40:07.467Z,17.10
2022-10-31T12:42:49.424Z,16.53
2022-10-31T12:45:50.116Z,15.88
2022-10-31T12:48:47.764Z,16.38
2022-10-31T12:51:34.259Z,15.60
2022-10-31T12:54:06.583Z,16.65
2022-10-31T12:57:08.467Z,15.67
2022-10-31T12:59:41.528Z,15.73
2022-10-31T13:02:21.287Z,15.30
2022-10-31T13:05:07.065Z,16.13
2022-10-31T13:07:38.619Z,15.57
2022-10-31T13:10:19.745Z,15.70
2022-10-31T13:12:49.879Z,15.70
2022-10-31T13:15:24.055Z,15.00
2022-10-31T13:18:18.144Z,15.18
2022-10-31T13:20:52.994Z,17.17
2022-10-31T13:23:49.836Z,15.63
2022-10-31T13:26:23.693Z,15.50
2022-10-31T13:29:01.310Z,15.18
2022-10-31T13:31:28.468Z,14.65
2022-10-31T13:34:12.509Z,15.90
2022-10-31T13:36:55.528Z,15.23
2022-10-31T13:39:41.795Z,16.00
2022-10-31T13:42:15.361Z,15.20
2022-10-31T13:44:42.745Z,14.93
2022-10-31T13:47:30.333Z,14.35
2022-10-31T13:50:22.075Z,15.60
2022-10-31T13:52:49.451Z,15.98
2022-10-31T13:55:39.934Z,14.93
2022-10-31T13:58:20.601Z,15.00
2022-10-31T14:00:58.470Z,16.27
2022-10-31T14:03:57.525Z,15.80
2022-10-31T14:06:15.916Z,15.98
2022-10-31T14:08:50.781Z,15.98
2022-10-31T14:11:33.009Z,16.90
2022-10-31T14:14:03.651Z,15.90
2022-10-31T14:16:32.912Z,14.90
2022-10-31T14:19:00.109Z,15.73
2022-10-31T14:21:31.932Z,15.95
2022-10-31T14:23:59.184Z,15.98
2022-10-31T14:26:31.863Z,15.52
2022-10-31T14:29:01.558Z,15.90
2022-10-31T14:31:40.747Z,15.50
2022-10-31T14:34:29.494Z,16.42
2022-10-31T14:37:20.913Z,15.43
2022-10-31T14:40:15.320Z,15.30
2022-10-31T14:43:12.901Z,15.47
2022-10-31T14:45:40.104Z,15.57
2022-10-31T14:48:19.156Z,14.30
2022-10-31T14:51:13.911Z,15.15
2022-10-31T14:53:45.100Z,15.18
2022-10-31T14:56:12.766Z,15.00
2022-10-31T14:58:44.012Z,16.30
2022-10-31T15:01:34.346Z,15.23
2022-10-31T15:04:25.204Z,15.25
2022-10-31T15:07:24.641Z,15.63
2022-10-31T15:10:05.065Z,14.27
2022-10-31T15:12:34.683Z,15.40
2022-10-31T15:15:16.102Z,14.63
2022-10-31T15:17:50.195Z,13.95
2022-10-31T15:20:28.839Z,15.85
2022-10-31T15:23:00.280Z,14.87
2022-10-31T15:25:35.755Z,14.85
2022-10-31T15:28:03.269Z,15.27
2022-10-31T15:30:31.156Z,15.10
2022-10-31T15:32:59.239Z,15.88
2022-10-31T15:35:32.695Z,13.77
2022-10-31T15:38:01.588Z,14.75
2022-10-31T15:40:29.382Z,16.88
2022-10-31T15:43:02.564Z,15.43
2022-10-31T15:45:31.607Z,15.07
2022-10-31T15:48:01.931Z,16.53
2022-10-31T15:50:29.637Z,18.92
2022-10-31T15:52:57.770Z,14.90
2022-10-31T15:55:30.325Z,14.45
2022-10-31T15:58:01.535Z,15.00
2022-10-31T16:00:34.052Z,15.03
2022-10-31T16:03:16.010Z,15.90
2022-10-31T16:05:56.358Z,15.38
2022-10-31T16:08:24.180Z,15.23
2022-10-31T16:10:51.203Z,15.15
2022-10-31T16:13:18.906Z,15.40
2022-10-31T16:15:59.348Z,15.32
2022-10-31T16:18:38.696Z,15.95
2022-10-31T16:21:06.917Z,16.30
2022-10-31T16:23:34.205Z,15.95
2022-10-31T16:26:01.442Z,15.47
2022-10-31T16:28:31.980Z,14.90
2022-10-31T16:31:02.764Z,15.35
2022-10-31T16:33:37.648Z,18.40
2022-10-31T16:36:35.323Z,16.70
2022-10-31T16:39:03.100Z,16.50
2022-10-31T16:41:30.339Z,29.45
2022-10-31T16:43:57.434Z,36.80
2022-10-31T16:46:27.228Z,22.23
2022-10-31T16:48:54.932Z,19.88
2022-10-31T16:51:21.817Z,20.37
2022-10-31T16:53:49.105Z,22.42
2022-10-31T16:56:19.012Z,19.13
2022-10-31T16:58:46.085Z,17.23
2022-10-31T17:01:14.453Z,22.35
2022-10-31T17:03:41.481Z,19.00
2022-10-31T17:06:13.014Z,15.48
2022-10-31T17:08:40.212Z,25.40
2022-10-31T17:11:09.399Z,18.17
2022-10-31T17:13:36.711Z,20.83
2022-10-31T17:16:04.284Z,18.57
2022-10-31T17:18:32.485Z,20.55
2022-10-31T17:21:02.444Z,17.58
2022-10-31T17:23:29.899Z,16.85
2022-10-31T17:25:57.427Z,17.42
2022-10-31T17:28:26.538Z,16.63
2022-10-31T17:30:55.575Z,17.10
2022-10-31T17:33:22.431Z,17.55
2022-10-31T17:35:50.073Z,16.90
2022-10-31T17:38:16.967Z,19.83
2022-10-31T17:40:44.247Z,16.40
2022-10-31T17:43:12.084Z,17.23
2022-10-31T17:45:40.890Z,18.10
2022-10-31T17:48:09.451Z,19.00
2022-10-31T17:50:36.578Z,19.63
2022-10-31T17:53:04.085Z,16.30
2022-10-31T17:55:36.038Z,16.98
2022-10-31T17:58:05.315Z,17.02
2022-10-31T18:00:32.686Z,16.48
2022-10-31T18:03:00.260Z,16.55
2022-10-31T18:05:27.786Z,16.23
2022-10-31T18:07:56.505Z,22.10
2022-10-31T18:10:25.510Z,17.02
2022-10-31T18:12:53.037Z,16.73
2022-10-31T18:15:20.585Z,15.65
2022-10-31T18:17:47.784Z,15.47
2022-10-31T18:20:14.613Z,15.80
2022-10-31T18:22:41.408Z,15.43
2022-10-31T18:25:08.631Z,14.93
2022-10-31T18:27:35.981Z,16.20
2022-10-31T18:30:03.218Z,14.93
2022-10-31T18:32:30.385Z,15.98
2022-10-31T18:34:57.570Z,16.15
2022-10-31T18:37:24.750Z,14.50
2022-10-31T18:39:52.043Z,13.45
2022-10-31T18:42:18.805Z,13.50
2022-10-31T18:44:46.025Z,14.27
2022-10-31T18:47:13.437Z,13.65
2022-10-31T18:49:40.860Z,13.93
2022-10-31T18:52:08.366Z,15.75
2022-10-31T18:54:35.707Z,14.47
2022-10-31T18:57:02.660Z,18.13
2022-10-31T18:59:29.506Z,14.32
2022-10-31T19:01:57.035Z,13.27
2022-10-31T19:04:24.602Z,12.35
2022-10-31T19:06:51.462Z,11.53
2022-10-31T19:09:18.613Z,12.10
2022-10-31T19:11:45.870Z,10.63
2022-10-31T19:14:14.753Z,11.60
2022-10-31T19:16:42.284Z,9.10
2022-10-31T19:19:09.838Z,10.67
2022-10-31T19:21:36.635Z,8.60
2022-10-31T19:24:03.762Z,10.30
2022-10-31T19:26:30.970Z,10.05
2022-10-31T19:28:58.931Z,8.05
2022-10-31T19:31:26.166Z,9.10
2022-10-31T19:33:53.457Z,9.43
2022-10-31T19:36:21.098Z,8.90
2022-10-31T19:38:50.963Z,8.77
2022-10-31T19:41:24.013Z,9.18
2022-10-31T19:43:51.035Z,8.73
2022-10-31T19:46:27.797Z,8.50
2022-10-31T19:49:06.542Z,8.75
2022-10-31T19:51:33.394Z,8.52
2022-10-31T19:54:00.650Z,8.95
2022-10-31T19:56:27.482Z,8.97
2022-10-31T19:58:54.623Z,7.00
2022-10-31T20:01:23.477Z,7.90
2022-10-31T20:03:51.239Z,7.32
2022-10-31T20:06:31.948Z,6.82
2022-10-31T20:08:59.704Z,7.43
2022-10-31T20:11:27.958Z,7.00
2022-10-31T20:13:55.999Z,6.05
2022-10-31T20:16:23.460Z,6.93
2022-10-31T20:18:50.729Z,7.22
2022-10-31T20:21:20.203Z,6.90
2022-10-31T20:23:47.675Z,7.47
2022-10-31T20:26:19.596Z,7.53
2022-10-31T20:28:46.953Z,6.50
2022-10-31T20:31:19.901Z,7.65
2022-10-31T20:33:47.565Z,7.70
2022-10-31T20:36:15.124Z,8.98
2022-10-31T20:38:42.869Z,6.82
2022-10-31T20:41:11.371Z,7.22
2022-10-31T20:43:39.043Z,7.45
2022-10-31T20:46:26.691Z,6.93
2022-10-31T20:48:54.512Z,7.68
2022-10-31T20:51:24.857Z,7.75
2022-10-31T20:53:53.130Z,7.57
2022-10-31T20:56:22.298Z,7.28
2022-10-31T20:58:50.535Z,6.10
2022-10-31T21:01:24.701Z,6.35
2022-10-31T21:03:52.462Z,7.95
2022-10-31T21:06:20.513Z,6.68
2022-10-31T21:08:47.805Z,7.10
2022-10-31T21:11:16.585Z,6.67
2022-10-31T21:13:44.715Z,6.32
2022-10-31T21:16:16.968Z,5.85
2022-10-31T21:18:45.192Z,6.40
2022-10-31T21:21:28.980Z,7.07
2022-10-31T21:24:03.649Z,6.33
2022-10-31T21:26:34.441Z,6.63
2022-10-31T21:29:02.177Z,7.05
2022-10-31T21:31:29.785Z,6.57
2022-10-31T21:33:57.892Z,6.78
2022-10-31T21:36:26.190Z,6.53
2022-10-31T21:38:54.191Z,6.95
2022-10-31T21:41:22.168Z,7.40
2022-10-31T21:43:50.758Z,5.95
2022-10-31T21:46:21.108Z,7.32
2022-10-31T21:48:48.387Z,6.23
2022-10-31T21:51:21.446Z,5.97
2022-10-31T21:54:07.856Z,5.75
2022-10-31T21:56:35.256Z,6.20
2022-10-31T21:59:02.447Z,5.60
2022-10-31T22:01:29.892Z,6.53
2022-10-31T22:03:58.054Z,6.50
2022-10-31T22:06:30.206Z,6.95
2022-10-31T22:08:59.043Z,6.38
2022-10-31T22:11:28.030Z,6.88
2022-10-31T22:13:55.708Z,4.10
2022-10-31T22:16:24.268Z,5.95
2022-10-31T22:18:56.020Z,6.57
2022-10-31T22:21:25.886Z,4.60
2022-10-31T22:24:03.208Z,6.13
2022-10-31T22:26:32.875Z,6.00
2022-10-31T22:29:02.257Z,5.80
2022-10-31T22:31:30.905Z,5.68
2022-10-31T22:33:58.458Z,5.35
2022-10-31T22:36:27.777Z,5.15
2022-10-31T22:38:55.317Z,4.57
2022-10-31T22:41:24.595Z,5.80
2022-10-31T22:43:51.802Z,5.63
2022-10-31T22:46:21.333Z,5.63
2022-10-31T22:48:50.651Z,5.50
2022-10-31T22:51:29.041Z,5.40
2022-10-31T22:53:56.717Z,5.10
2022-10-31T22:56:26.845Z,5.47
2022-10-31T22:58:54.206Z,5.30
2022-10-31T23:01:24.454Z,5.35
2022-10-31T23:03:52.230Z,5.17
2022-10-31T23:06:24.992Z,5.30
2022-10-31T23:08:52.774Z,5.28
2022-10-31T23:11:34.692Z,5.20
2022-10-31T23:14:09.931Z,4.65
2022-10-31T23:16:45.739Z,4.07
2022-10-31T23:19:23.247Z,4.80
2022-10-31T23:22:02.303Z,5.75
2022-10-31T23:24:46.770Z,5.93
2022-10-31T23:27:22.393Z,6.10
2022-10-31T23:29:51.901Z,5.30
2022-10-31T23:32:37.253Z,5.90
2022-10-31T23:35:09.987Z,4.45
2022-10-31T23:37:38.773Z,5.53
2022-10-31T23:40:08.097Z,5.85
2022-10-31T23:42:35.327Z,5.70
2022-10-31T23:45:02.569Z,5.95
2022-10-31T23:47:29.408Z,6.32
2022-10-31T23:49:56.881Z,6.30
2022-10-31T23:52:23.716Z,5.95
2022-10-31T23:54:50.561Z,6.23
2022-10-31T23:57:17.506Z,5.72
2022-10-31T23:59:44.835Z,6.00
